Time;durP1;ratioP1;P1;durP2;ratioP2;P2;SDS_P1;SDS_P2;PMS_P1;PMS_P2;Temp;Humidity;BMP_temperature;BMP_pressure;BME280_temperature;BME280_humidity;BME280_pressure;Samples;Min_cycle;Max_cycle;Signal;HPM_P1;HPM_P2
2022/01/17 00:00:22;;;;;;;;;;;;;;;;;;5015673;28;19924;-18
2022/01/17 00:02:48;;;;;;;;;;;;;;;;;;5017518;28;19949;-18
2022/01/17 00:05:14;;;;;;;;;;;;;;;;;;5016308;28;19979;-18
2022/01/17 00:07:40;;;;;;;;;;;;;;;;;;5016877;28;19914;-18
2022/01/17 00:10:06;;;;;;;;;;;;;;;;;;5016265;28;19944;-18
2022/01/17 00:12:36;;;;;;;;;;;;;;;;;;5016965;28;20369;-18
2022/01/17 00:15:02;;;;;;;;;;;;;;;;;;5017382;28;20221;-18
2022/01/17 00:17:33;;;;;;;;;;;;;;;;;;5017850;28;20245;-19
2022/01/17 00:20:09;;;;;;;;;;;;;;;;;;5017524;28;19914;-18
2022/01/17 00:22:35;;;;;;;;;;;;;;;;;;5016823;28;19914;-18
2022/01/17 00:25:01;;;;;;;;;;;;;;;;;;5016962;28;19916;-19
2022/01/17 00:27:27;;;;;;;;;;;;;;;;;;5016846;28;20383;-18
2022/01/17 00:29:53;;;;;;;;;;;;;;;;;;5016769;28;19917;-18
2022/01/17 00:32:20;;;;;;;;;;;;;;;;;;5016966;28;20229;-19
2022/01/17 00:34:46;;;;;;;;;;;;;;;;;;5016752;28;19999;-19
2022/01/17 00:37:12;;;;;;;;;;;;;;;;;;5016724;28;19910;-19
2022/01/17 00:39:38;;;;;;;;;;;;;;;;;;5017132;28;19956;-18
2022/01/17 00:42:05;;;;;;;;;;;;;;;;;;5016569;28;20252;-18
2022/01/17 00:44:31;;;;;;;;;;;;;;;;;;5016504;28;19952;-18
2022/01/17 00:46:57;;;;;;;;;;;;;;;;;;5015559;28;19944;-18
2022/01/17 00:49:24;;;;;;;;;;;;;;;;;;5015493;28;20333;-18
2022/01/17 00:51:50;;;;;;;;;;;;;;;;;;5016644;28;20399;-19
2022/01/17 00:54:16;;;;;;;;;;;;;;;;;;5016306;28;19913;-19
2022/01/17 00:56:43;;;;;;;;;;;;;;;;;;5016591;28;19921;-18
2022/01/17 00:59:09;;;;;;;;;;;;;;;;;;5016355;28;20353;-18
2022/01/17 01:01:35;;;;;;;;;;;;;;;;;;5016466;28;19937;-19
2022/01/17 01:04:02;;;;;;;;;;;;;;;;;;5015167;28;19920;-18
2022/01/17 01:06:30;;;;;;;;;;;;;;;;;;5016137;28;19924;-18
2022/01/17 01:08:56;;;;;;;;;;;;;;;;;;5015903;28;19921;-18
2022/01/17 01:11:22;;;;;;;;;;;;;;;;;;5014026;28;19928;-18
2022/01/17 01:13:48;;;;;;;;;;;;;;;;;;5015901;28;20365;-18
2022/01/17 01:19:07;;;;;;;;;;;;;;;;;;5016009;28;19920;-18
2022/01/17 01:29:44;;;;;;;;;;;;;;;;;;5015832;28;19980;-17
2022/01/17 01:32:11;;;;;;;;;;;;;;;;;;5015944;28;19923;-17
2022/01/17 01:34:42;;;;;;;;;;;;;;;;;;5015949;28;19941;-18
2022/01/17 01:37:09;;;;;;;;;;;;;;;;;;5016499;28;19905;-17
2022/01/17 01:39:37;;;;;;;;;;;;;;;;;;5015877;28;19972;-17
2022/01/17 01:42:04;;;;;;;;;;;;;;;;;;5015520;28;20004;-18
2022/01/17 01:44:30;;;;;;;;;;;;;;;;;;5014564;28;20371;-17
2022/01/17 01:46:56;;;;;;;;;;;;;;;;;;5014560;28;19959;-16
2022/01/17 01:49:22;;;;;;;;;;;;;;;;;;5015425;28;19917;-18
2022/01/17 01:51:48;;;;;;;;;;;;;;;;;;5015678;28;19921;-17
2022/01/17 01:54:14;;;;;;;;;;;;;;;;;;5015622;28;20266;-17
2022/01/17 01:56:42;;;;;;;;;;;;;;;;;;5014471;28;19966;-17
2022/01/17 01:59:08;;;;;;;;;;;;;;;;;;5016200;28;19976;-18
2022/01/17 02:01:34;;;;;;;;;;;;;;;;;;5015381;28;19929;-17
2022/01/17 02:04:00;;;;;;;;;;;;;;;;;;5015283;28;20341;-17
2022/01/17 02:06:26;;;;;;;;;;;;;;;;;;5015211;28;20351;-17
2022/01/17 02:08:52;;;;;;;;;;;;;;;;;;5015180;28;19921;-18
2022/01/17 02:11:18;;;;;;;;;;;;;;;;;;5015430;28;19917;-18
2022/01/17 02:13:46;;;;;;;;;;;;;;;;;;5015114;28;19913;-17
2022/01/17 02:16:14;;;;;;;;;;;;;;;;;;5015213;28;20261;-17
2022/01/17 02:18:40;;;;;;;;;;;;;;;;;;5015117;28;19909;-17
2022/01/17 02:23:35;;;;;;;;;;;;;;;;;;5015140;28;19921;-18
2022/01/17 02:26:01;;;;;;;;;;;;;;;;;;5014837;28;19913;-18
2022/01/17 02:28:27;;;;;;;;;;;;;;;;;;5015144;28;19909;-18
2022/01/17 02:30:53;;;;;;;;;;;;;;;;;;5015809;28;19917;-18
2022/01/17 02:33:20;;;;;;;;;;;;;;;;;;5014901;28;19913;-18
2022/01/17 02:35:46;;;;;;;;;;;;;;;;;;5014961;28;19920;-17
2022/01/17 02:38:12;;;;;;;;;;;;;;;;;;5014053;28;19909;-18
2022/01/17 02:40:38;;;;;;;;;;;;;;;;;;5014911;28;19975;-18
2022/01/17 02:43:07;;;;;;;;;;;;;;;;;;5015005;28;19921;-17
2022/01/17 02:45:37;;;;;;;;;;;;;;;;;;5015153;28;19915;-18
2022/01/17 02:48:03;;;;;;;;;;;;;;;;;;5014928;28;19910;-17
2022/01/17 02:50:29;;;;;;;;;;;;;;;;;;5014833;28;19981;-17
2022/01/17 02:52:55;;;;;;;;;;;;;;;;;;5015219;28;20297;-17
2022/01/17 02:55:21;;;;;;;;;;;;;;;;;;5014815;28;19975;-17
2022/01/17 02:57:49;;;;;;;;;;;;;;;;;;5014857;28;20229;-17
2022/01/17 03:00:15;;;;;;;;;;;;;;;;;;5014705;28;19917;-18
2022/01/17 03:02:42;;;;;;;;;;;;;;;;;;5014950;28;19924;-17
2022/01/17 03:05:08;;;;;;;;;;;;;;;;;;5014689;28;19967;-18
2022/01/17 03:07:34;;;;;;;;;;;;;;;;;;5014677;28;19917;-18
2022/01/17 03:10:07;;;;;;;;;;;;;;;;;;5014546;28;19956;-18
2022/01/17 03:12:33;;;;;;;;;;;;;;;;;;5014424;28;19914;-17
2022/01/17 03:14:59;;;;;;;;;;;;;;;;;;5014641;28;19913;-17
2022/01/17 03:17:26;;;;;;;;;;;;;;;;;;5014526;28;19909;-17
2022/01/17 03:19:52;;;;;;;;;;;;;;;;;;5014863;28;20305;-17
2022/01/17 03:22:18;;;;;;;;;;;;;;;;;;5014400;28;19967;-17
2022/01/17 03:24:44;;;;;;;;;;;;;;;;;;5014546;28;19968;-17
2022/01/17 03:27:10;;;;;;;;;;;;;;;;;;5014502;28;19914;-17
2022/01/17 03:29:36;;;;;;;;;;;;;;;;;;5014961;28;20008;-17
2022/01/17 03:32:02;;;;;;;;;;;;;;;;;;5014321;28;20372;-17
2022/01/17 03:34:28;;;;;;;;;;;;;;;;;;5015719;28;20005;-17
2022/01/17 03:36:54;;;;;;;;;;;;;;;;;;5018027;28;19909;-18
2022/01/17 03:39:21;;;;;;;;;;;;;;;;;;5017985;28;19913;-17
2022/01/17 03:41:47;;;;;;;;;;;;;;;;;;5017702;28;20225;-18
2022/01/17 03:44:13;;;;;;;;;;;;;;;;;;5017820;28;19916;-18
2022/01/17 03:46:39;;;;;;;;;;;;;;;;;;5017677;28;19992;-18
2022/01/17 03:49:05;;;;;;;;;;;;;;;;;;5017779;28;19949;-18
2022/01/17 03:51:31;;;;;;;;;;;;;;;;;;5018117;28;19928;-18
2022/01/17 03:53:57;;;;;;;;;;;;;;;;;;5017690;28;19910;-18
2022/01/17 03:56:23;;;;;;;;;;;;;;;;;;5017689;28;19961;-18
2022/01/17 03:58:49;;;;;;;;;;;;;;;;;;5017879;28;19919;-18
2022/01/17 04:01:15;;;;;;;;;;;;;;;;;;5017842;28;19913;-19
2022/01/17 04:03:41;;;;;;;;;;;;;;;;;;5017336;28;19963;-18
2022/01/17 04:06:07;;;;;;;;;;;;;;;;;;5017611;28;19909;-18
2022/01/17 04:08:34;;;;;;;;;;;;;;;;;;5017097;28;19952;-18
2022/01/17 04:11:00;;;;;;;;;;;;;;;;;;5016283;28;19913;-18
2022/01/17 04:13:26;;;;;;;;;;;;;;;;;;5017159;28;19979;-18
2022/01/17 04:15:52;;;;;;;;;;;;;;;;;;5016209;28;20256;-19
2022/01/17 04:18:23;;;;;;;;;;;;;;;;;;5017371;28;19924;-18
2022/01/17 04:20:49;;;;;;;;;;;;;;;;;;5017323;28;19910;-19
2022/01/17 04:23:15;;;;;;;;;;;;;;;;;;5017212;28;19913;-18
2022/01/17 04:25:41;;;;;;;;;;;;;;;;;;5017253;28;19916;-18
2022/01/17 04:28:07;;;;;;;;;;;;;;;;;;5017003;28;20356;-18
2022/01/17 04:30:33;;;;;;;;;;;;;;;;;;5016857;28;20249;-19
2022/01/17 04:32:59;;;;;;;;;;;;;;;;;;5016716;28;19920;-18
2022/01/17 04:35:25;;;;;;;;;;;;;;;;;;5016743;28;19952;-17
2022/01/17 04:37:51;;;;;;;;;;;;;;;;;;5016662;28;19910;-18
2022/01/17 04:40:17;;;;;;;;;;;;;;;;;;5016670;28;19921;-17
2022/01/17 04:42:46;;;;;;;;;;;;;;;;;;5016818;28;20315;-18
2022/01/17 04:45:15;;;;;;;;;;;;;;;;;;5016486;28;20352;-18
2022/01/17 04:47:41;;;;;;;;;;;;;;;;;;5016758;28;20003;-18
2022/01/17 04:50:07;;;;;;;;;;;;;;;;;;5016661;28;20359;-18
2022/01/17 04:52:35;;;;;;;;;;;;;;;;;;5015232;28;19928;-18
2022/01/17 04:55:02;;;;;;;;;;;;;;;;;;5015189;28;20376;-18
2022/01/17 04:57:28;;;;;;;;;;;;;;;;;;5015071;28;19909;-18
2022/01/17 04:59:54;;;;;;;;;;;;;;;;;;5016016;28;19940;-19
2022/01/17 05:02:20;;;;;;;;;;;;;;;;;;5451547;23;19937;-19
2022/01/17 05:04:46;;;;;;;;;;;;;;;;;;5016144;28;20311;-21
2022/01/17 05:07:12;;;;;;;;;;;;;;;;;;5016066;28;20256;-22
2022/01/17 05:09:40;;;;;;;;;;;;;;;;;;5016278;28;19975;-22
2022/01/17 05:12:06;;;;;;;;;;;;;;;;;;5016426;28;19945;-21
2022/01/17 05:14:33;;;;;;;;;;;;;;;;;;5016282;28;19967;-21
2022/01/17 05:17:05;;;;;;;;;;;;;;;;;;5015929;28;20305;-20
2022/01/17 05:19:48;;;;;;;;;;;;;;;;;;5015601;28;20286;-20
2022/01/17 05:22:14;;;;;;;;;;;;;;;;;;5015999;28;19924;-19
2022/01/17 05:24:40;;;;;;;;;;;;;;;;;;5015793;28;20307;-20
2022/01/17 05:27:06;;;;;;;;;;;;;;;;;;5015951;28;19957;-21
2022/01/17 05:29:32;;;;;;;;;;;;;;;;;;5015469;28;19927;-22
2022/01/17 05:31:58;;;;;;;;;;;;;;;;;;5015649;28;19913;-22
2022/01/17 05:34:24;;;;;;;;;;;;;;;;;;5015406;28;19963;-22
2022/01/17 05:36:50;;;;;;;;;;;;;;;;;;5015403;28;19905;-20
2022/01/17 05:39:16;;;;;;;;;;;;;;;;;;5015291;28;20301;-21
2022/01/17 05:41:42;;;;;;;;;;;;;;;;;;5015270;28;19924;-22
2022/01/17 05:44:08;;;;;;;;;;;;;;;;;;5015741;28;19913;-22
2022/01/17 05:46:34;;;;;;;;;;;;;;;;;;5015180;28;19906;-23
2022/01/17 05:49:00;;;;;;;;;;;;;;;;;;5015213;28;19913;-21
2022/01/17 05:51:26;;;;;;;;;;;;;;;;;;5014889;28;19921;-22
2022/01/17 05:53:52;;;;;;;;;;;;;;;;;;5014894;28;20245;-22
2022/01/17 05:56:18;;;;;;;;;;;;;;;;;;5014957;28;19913;-21
2022/01/17 05:58:44;;;;;;;;;;;;;;;;;;5014856;28;20194;-22
2022/01/17 06:01:12;;;;;;;;;;;;;;;;;;5014897;28;19913;-21
2022/01/17 06:03:38;;;;;;;;;;;;;;;;;;5014611;28;20019;-20
2022/01/17 06:06:05;;;;;;;;;;;;;;;;;;5015034;28;19944;-20
2022/01/17 06:08:31;;;;;;;;;;;;;;;;;;5015238;28;19910;-20
2022/01/17 06:10:57;;;;;;;;;;;;;;;;;;5014939;28;20240;-19
2022/01/17 06:13:23;;;;;;;;;;;;;;;;;;5014948;28;19913;-21
2022/01/17 06:15:49;;;;;;;;;;;;;;;;;;5014683;28;19917;-21
2022/01/17 06:18:15;;;;;;;;;;;;;;;;;;5014796;28;20198;-21
2022/01/17 06:20:41;;;;;;;;;;;;;;;;;;5014671;28;19913;-21
2022/01/17 06:23:07;;;;;;;;;;;;;;;;;;5014818;28;19978;-21
2022/01/17 06:25:33;;;;;;;;;;;;;;;;;;5014709;28;20024;-20
2022/01/17 06:27:59;;;;;;;;;;;;;;;;;;5014921;28;19975;-22
2022/01/17 06:30:26;;;;;;;;;;;;;;;;;;5014986;28;19917;-21
2022/01/17 06:32:52;;;;;;;;;;;;;;;;;;5014691;28;19921;-20
2022/01/17 06:35:19;;;;;;;;;;;;;;;;;;5014638;28;19933;-21
2022/01/17 06:37:45;;;;;;;;;;;;;;;;;;5014704;28;20357;-22
2022/01/17 06:40:11;;;;;;;;;;;;;;;;;;5014851;28;20275;-20
2022/01/17 06:42:38;;;;;;;;;;;;;;;;;;5014665;28;20008;-21
2022/01/17 06:45:04;;;;;;;;;;;;;;;;;;5015038;28;20394;-21
2022/01/17 06:47:31;;;;;;;;;;;;;;;;;;5014376;28;19920;-20
2022/01/17 06:49:56;;;;;;;;;;;;;;;;;;5014784;28;19933;-21
2022/01/17 06:52:23;;;;;;;;;;;;;;;;;;5014694;28;19928;-21
2022/01/17 06:54:50;;;;;;;;;;;;;;;;;;5014618;28;19913;-21
2022/01/17 06:57:17;;;;;;;;;;;;;;;;;;5015213;28;19924;-21
2022/01/17 06:59:43;;;;;;;;;;;;;;;;;;5014376;28;19909;-21
2022/01/17 07:02:09;;;;;;;;;;;;;;;;;;5014550;28;19956;-21
2022/01/17 07:04:35;;;;;;;;;;;;;;;;;;5014651;28;19952;-21
2022/01/17 07:07:02;;;;;;;;;;;;;;;;;;5014213;28;20263;-21
2022/01/17 07:09:28;;;;;;;;;;;;;;;;;;5016285;28;19916;-22
2022/01/17 07:11:58;;;;;;;;;;;;;;;;;;5017373;28;19935;-19
2022/01/17 07:14:25;;;;;;;;;;;;;;;;;;5017450;28;19956;-20
2022/01/17 07:16:51;;;;;;;;;;;;;;;;;;5018304;28;19915;-21
2022/01/17 07:19:18;;;;;;;;;;;;;;;;;;5017486;28;19918;-20
2022/01/17 07:21:44;;;;;;;;;;;;;;;;;;5016365;28;19909;-21
2022/01/17 07:24:10;;;;;;;;;;;;;;;;;;5017335;28;20294;-21
2022/01/17 07:26:36;;;;;;;;;;;;;;;;;;5017667;28;20052;-22
2022/01/17 07:29:05;;;;;;;;;;;;;;;;;;5017268;28;20067;-21
2022/01/17 07:31:31;;;;;;;;;;;;;;;;;;5017028;28;19917;-20
2022/01/17 07:33:57;;;;;;;;;;;;;;;;;;5017484;28;19921;-20
2022/01/17 07:36:23;;;;;;;;;;;;;;;;;;5017121;28;20332;-21
2022/01/17 07:38:49;;;;;;;;;;;;;;;;;;5017292;28;19909;-21
2022/01/17 07:41:15;;;;;;;;;;;;;;;;;;5018101;28;19920;-21
2022/01/17 07:43:42;;;;;;;;;;;;;;;;;;5017212;28;19960;-20
2022/01/17 07:46:18;;;;;;;;;;;;;;;;;;5017578;28;19913;-20
2022/01/17 07:49:08;;;;;;;;;;;;;;;;;;5017372;28;19951;-21
2022/01/17 07:51:34;;;;;;;;;;;;;;;;;;5017369;28;19921;-20
2022/01/17 07:54:00;;;;;;;;;;;;;;;;;;5017611;28;20255;-21
2022/01/17 07:56:26;;;;;;;;;;;;;;;;;;5017149;28;19919;-21
2022/01/17 07:58:52;;;;;;;;;;;;;;;;;;5017398;28;19924;-21
2022/01/17 08:01:20;;;;;;;;;;;;;;;;;;5017275;28;20351;-21
2022/01/17 08:03:46;;;;;;;;;;;;;;;;;;5016728;28;20264;-20
2022/01/17 08:06:12;;;;;;;;;;;;;;;;;;5017137;28;19924;-22
2022/01/17 08:08:38;;;;;;;;;;;;;;;;;;5017588;28;19923;-21
2022/01/17 08:11:04;;;;;;;;;;;;;;;;;;5017170;28;20068;-21
2022/01/17 08:13:32;;;;;;;;;;;;;;;;;;5016872;28;20308;-20
2022/01/17 08:15:58;;;;;;;;;;;;;;;;;;5016814;28;20016;-21
2022/01/17 08:18:24;;;;;;;;;;;;;;;;;;5017357;28;19910;-21
2022/01/17 08:20:50;;;;;;;;;;;;;;;;;;5016249;28;19914;-22
2022/01/17 08:23:17;;;;;;;;;;;;;;;;;;5016518;28;19913;-22
2022/01/17 08:25:43;;;;;;;;;;;;;;;;;;5015479;28;19941;-21
2022/01/17 08:28:09;;;;;;;;;;;;;;;;;;5016774;28;19910;-20
2022/01/17 08:30:36;;;;;;;;;;;;;;;;;;5016595;28;19949;-20
2022/01/17 08:33:03;;;;;;;;;;;;;;;;;;5016370;28;19921;-21
2022/01/17 08:35:29;;;;;;;;;;;;;;;;;;5015352;28;19940;-19
2022/01/17 08:37:55;;;;;;;;;;;;;;;;;;5016361;28;19917;-21
2022/01/17 08:40:22;;;;;;;;;;;;;;;;;;5016657;28;20237;-21
2022/01/17 08:42:51;;;;;;;;;;;;;;;;;;5016459;28;20178;-20
2022/01/17 08:45:18;;;;;;;;;;;;;;;;;;5016775;28;19920;-21
2022/01/17 08:47:49;;;;;;;;;;;;;;;;;;5016190;28;19913;-20
2022/01/17 08:50:15;;;;;;;;;;;;;;;;;;5016468;28;20000;-20
2022/01/17 08:52:41;;;;;;;;;;;;;;;;;;5016436;28;19917;-21
2022/01/17 08:55:08;;;;;;;;;;;;;;;;;;5016590;28;19944;-21
2022/01/17 08:57:35;;;;;;;;;;;;;;;;;;5016069;28;19909;-20
2022/01/17 09:00:01;;;;;;;;;;;;;;;;;;5016158;28;19914;-22
2022/01/17 09:02:27;;;;;;;;;;;;;;;;;;5014810;28;19924;-21
2022/01/17 09:04:53;;;;;;;;;;;;;;;;;;5016059;28;19948;-20
2022/01/17 09:07:21;;;;;;;;;;;;;;;;;;5015763;28;19910;-20
2022/01/17 09:09:57;;;;;;;;;;;;;;;;;;5016371;28;20252;-20
2022/01/17 09:15:15;;;;;;;;;;;;;;;;;;5015622;28;19920;-21
2022/01/17 09:17:48;;;;;;;;;;;;;;;;;;5015608;28;19957;-21
2022/01/17 09:20:20;;;;;;;;;;;;;;;;;;5015547;28;19909;-21
2022/01/17 09:22:49;;;;;;;;;;;;;;;;;;5015282;28;19927;-20
2022/01/17 09:25:15;;;;;;;;;;;;;;;;;;5015118;28;19920;-21
2022/01/17 09:27:44;;;;;;;;;;;;;;;;;;5015555;28;20113;-21
2022/01/17 09:33:03;;;;;;;;;;;;;;;;;;5014539;28;19970;-20
2022/01/17 09:49:42;;;;;;;;;;;;;;;;;;5015346;28;19975;-25
2022/01/17 09:52:25;;;;;;;;;;;;;;;;;;5013923;28;19918;-25
2022/01/17 09:54:55;;;;;;;;;;;;;;;;;;5014538;28;19920;-25
2022/01/17 09:57:21;;;;;;;;;;;;;;;;;;5014137;28;19922;-26
2022/01/17 09:59:47;;;;;;;;;;;;;;;;;;5014245;28;19917;-25
2022/01/17 10:02:14;;;;;;;;;;;;;;;;;;5012714;28;19936;-25
2022/01/17 10:04:40;;;;;;;;;;;;;;;;;;5014129;28;19910;-25
2022/01/17 10:07:07;;;;;;;;;;;;;;;;;;5012930;28;19985;-25
2022/01/17 10:09:33;;;;;;;;;;;;;;;;;;5014017;28;19936;-25
2022/01/17 10:12:00;;;;;;;;;;;;;;;;;;5013880;28;19925;-26
2022/01/17 10:14:36;;;;;;;;;;;;;;;;;;5013848;28;19925;-26
2022/01/17 10:17:03;;;;;;;;;;;;;;;;;;5014049;28;20356;-26
2022/01/17 10:19:29;;;;;;;;;;;;;;;;;;5013986;28;19941;-27
2022/01/17 10:21:59;;;;;;;;;;;;;;;;;;5013806;28;19940;-25
2022/01/17 10:27:16;;;;;;;;;;;;;;;;;;5013814;28;19910;-26
2022/01/17 10:30:19;;;;;;;;;;;;;;;;;;5013964;28;19920;-26
2022/01/17 10:35:25;;;;;;;;;;;;;;;;;;5014209;28;19971;-26
2022/01/17 10:37:51;;;;;;;;;;;;;;;;;;5013101;28;19921;-36
2022/01/17 10:40:17;;;;;;;;;;;;;;;;;;5014215;28;19914;-25
2022/01/17 10:42:45;;;;;;;;;;;;;;;;;;5014527;28;19953;-25
2022/01/17 10:45:11;;;;;;;;;;;;;;;;;;5017049;28;19914;-26
2022/01/17 10:47:39;;;;;;;;;;;;;;;;;;5018567;28;20260;-25
2022/01/17 10:50:06;;;;;;;;;;;;;;;;;;5018276;28;19909;-25
2022/01/17 10:52:32;;;;;;;;;;;;;;;;;;5017016;28;20060;-25
2022/01/17 10:54:59;;;;;;;;;;;;;;;;;;5018304;28;20398;-25
2022/01/17 10:57:25;;;;;;;;;;;;;;;;;;5018246;28;19913;-25
2022/01/17 10:59:51;;;;;;;;;;;;;;;;;;5017819;28;20272;-25
2022/01/17 11:02:18;;;;;;;;;;;;;;;;;;5017939;28;19960;-25
2022/01/17 11:04:44;;;;;;;;;;;;;;;;;;5017877;28;19976;-27
2022/01/17 11:07:11;;;;;;;;;;;;;;;;;;5016781;28;19937;-26
2022/01/17 11:09:37;;;;;;;;;;;;;;;;;;5018160;28;19980;-25
2022/01/17 11:12:04;;;;;;;;;;;;;;;;;;5017841;28;20004;-37
2022/01/17 11:14:30;;;;;;;;;;;;;;;;;;5017678;28;19913;-26
2022/01/17 11:16:57;;;;;;;;;;;;;;;;;;5017757;28;20012;-27
2022/01/17 11:20:08;;;;;;;;;;;;;;;;;;5017828;28;19924;-24
2022/01/17 11:22:10;;;;;;;;;;;;;;;;;;5010383;28;19997;-24
2022/01/17 11:24:36;;;;;;;;;;;;;;;;;;5018005;28;20138;-25
2022/01/17 11:27:04;;;;;;;;;;;;;;;;;;5017672;28;19997;-25
2022/01/17 11:29:30;;;;;;;;;;;;;;;;;;5017719;28;19914;-27
2022/01/17 11:31:56;;;;;;;;;;;;;;;;;;5016207;28;20374;-27
2022/01/17 11:34:22;;;;;;;;;;;;;;;;;;5017918;28;19918;-26
2022/01/17 11:36:56;;;;;;;;;;;;;;;;;;5017623;28;19910;-27
2022/01/17 11:39:23;;;;;;;;;;;;;;;;;;5017904;28;20347;-26
2022/01/17 11:42:00;;;;;;;;;;;;;;;;;;5017460;28;19910;-27
2022/01/17 11:44:27;;;;;;;;;;;;;;;;;;5016786;28;19936;-27
2022/01/17 11:46:54;;;;;;;;;;;;;;;;;;5017180;28;20356;-27
2022/01/17 11:49:20;;;;;;;;;;;;;;;;;;5017406;28;20355;-27
2022/01/17 11:51:48;;;;;;;;;;;;;;;;;;5017227;28;19933;-28
2022/01/17 11:54:15;;;;;;;;;;;;;;;;;;5015602;28;19921;-27
2022/01/17 11:59:24;;;;;;;;;;;;;;;;;;4612605;26;19951;-27
2022/01/17 12:01:52;;;;;;;;;;;;;;;;;;4997453;28;19996;-27
2022/01/17 12:04:21;;;;;;;;;;;;;;;;;;4997303;28;20005;-27
2022/01/17 12:06:48;;;;;;;;;;;;;;;;;;4997135;28;19940;-26
2022/01/17 12:09:16;;;;;;;;;;;;;;;;;;4996992;28;20003;-25
2022/01/17 12:12:05;;;;;;;;;;;;;;;;;;4996552;28;19917;-26
2022/01/17 12:14:33;;;;;;;;;;;;;;;;;;4996345;28;20004;-26
2022/01/17 12:17:05;;;;;;;;;;;;;;;;;;4996298;28;19918;-28
2022/01/17 12:19:34;;;;;;;;;;;;;;;;;;4995309;28;20365;-25
2022/01/17 12:22:01;;;;;;;;;;;;;;;;;;4995197;28;19914;-25
2022/01/17 12:24:32;;;;;;;;;;;;;;;;;;4996147;28;19914;-25
2022/01/17 12:29:53;;;;;;;;;;;;;;;;;;4996174;28;19964;-25
2022/01/17 12:32:19;;;;;;;;;;;;;;;;;;4994706;28;19976;-27
2022/01/17 12:34:47;;;;;;;;;;;;;;;;;;4996331;28;19914;-27
2022/01/17 12:37:14;;;;;;;;;;;;;;;;;;4996410;28;19910;-27
2022/01/17 12:39:40;;;;;;;;;;;;;;;;;;4996724;28;20071;-26
2022/01/17 12:42:07;;;;;;;;;;;;;;;;;;4996760;28;19910;-26
2022/01/17 12:44:36;;;;;;;;;;;;;;;;;;4996560;28;19925;-26
2022/01/17 12:47:02;;;;;;;;;;;;;;;;;;4996393;28;20340;-26
2022/01/17 12:49:30;;;;;;;;;;;;;;;;;;4996605;28;19913;-26
2022/01/17 12:51:57;;;;;;;;;;;;;;;;;;4996504;28;19914;-27
2022/01/17 12:54:23;;;;;;;;;;;;;;;;;;4996270;28;19914;-26
2022/01/17 12:56:49;;;;;;;;;;;;;;;;;;4996154;28;20005;-26
2022/01/17 12:59:17;;;;;;;;;;;;;;;;;;4995725;28;20335;-26
2022/01/17 13:01:43;;;;;;;;;;;;;;;;;;4996029;28;19921;-27
2022/01/17 13:04:11;;;;;;;;;;;;;;;;;;4996389;28;20394;-26
2022/01/17 13:06:37;;;;;;;;;;;;;;;;;;4996202;28;19913;-26
2022/01/17 13:09:04;;;;;;;;;;;;;;;;;;4994985;28;20364;-27
2022/01/17 13:11:30;;;;;;;;;;;;;;;;;;4996121;28;19968;-27
2022/01/17 13:13:58;;;;;;;;;;;;;;;;;;4996036;28;19914;-26
2022/01/17 13:16:25;;;;;;;;;;;;;;;;;;4995694;28;19914;-27
2022/01/17 13:18:52;;;;;;;;;;;;;;;;;;4994898;28;19924;-27
2022/01/17 13:21:18;;;;;;;;;;;;;;;;;;4995953;28;19937;-26
2022/01/17 13:23:49;;;;;;;;;;;;;;;;;;4995884;28;19910;-27
2022/01/17 13:26:15;;;;;;;;;;;;;;;;;;4995771;28;19914;-27
2022/01/17 13:28:42;;;;;;;;;;;;;;;;;;4995702;28;19918;-27
2022/01/17 13:31:09;;;;;;;;;;;;;;;;;;4995675;28;19914;-26
2022/01/17 13:33:35;;;;;;;;;;;;;;;;;;4995555;28;20073;-27
2022/01/17 13:36:02;;;;;;;;;;;;;;;;;;4995614;28;20005;-27
2022/01/17 13:38:28;;;;;;;;;;;;;;;;;;4995620;28;19924;-26
2022/01/17 13:41:02;;;;;;;;;;;;;;;;;;4994303;28;19918;-27
2022/01/17 13:43:28;;;;;;;;;;;;;;;;;;4995493;28;19910;-26
2022/01/17 13:45:56;;;;;;;;;;;;;;;;;;4995294;28;20348;-26
2022/01/17 13:48:22;;;;;;;;;;;;;;;;;;4994427;28;19913;-26
2022/01/17 13:50:51;;;;;;;;;;;;;;;;;;4995526;28;19918;-26
2022/01/17 13:53:18;;;;;;;;;;;;;;;;;;4995574;28;20293;-26
2022/01/17 13:55:44;;;;;;;;;;;;;;;;;;4995462;28;19949;-26
2022/01/17 13:58:15;;;;;;;;;;;;;;;;;;4994662;28;19922;-26
2022/01/17 14:00:41;;;;;;;;;;;;;;;;;;4994527;28;19914;-26
2022/01/17 14:03:08;;;;;;;;;;;;;;;;;;4994579;28;19929;-26
2022/01/17 14:05:35;;;;;;;;;;;;;;;;;;4994565;28;19922;-26
2022/01/17 14:08:01;;;;;;;;;;;;;;;;;;4993982;28;19909;-26
2022/01/17 14:10:32;;;;;;;;;;;;;;;;;;4995211;28;19914;-26
2022/01/17 14:12:58;;;;;;;;;;;;;;;;;;4994104;28;20340;-26
2022/01/17 14:15:24;;;;;;;;;;;;;;;;;;4993470;28;19936;-25
2022/01/17 14:17:50;;;;;;;;;;;;;;;;;;4993116;28;19976;-26
2022/01/17 14:20:17;;;;;;;;;;;;;;;;;;4994569;28;19988;-25
2022/01/17 14:22:44;;;;;;;;;;;;;;;;;;4993829;28;19913;-26
2022/01/17 14:25:10;;;;;;;;;;;;;;;;;;4995059;28;19924;-26
2022/01/17 14:27:37;;;;;;;;;;;;;;;;;;4995044;28;19910;-26
2022/01/17 14:30:06;;;;;;;;;;;;;;;;;;4995211;28;19917;-26
2022/01/17 14:32:32;;;;;;;;;;;;;;;;;;4994763;28;19917;-25
2022/01/17 14:34:59;;;;;;;;;;;;;;;;;;4994729;28;19914;-25
2022/01/17 14:37:25;;;;;;;;;;;;;;;;;;4994942;28;20329;-27
2022/01/17 14:39:51;;;;;;;;;;;;;;;;;;4995099;28;19928;-26
2022/01/17 14:42:18;;;;;;;;;;;;;;;;;;4994811;28;19921;-26
2022/01/17 14:44:45;;;;;;;;;;;;;;;;;;4994640;28;20333;-27
2022/01/17 14:47:11;;;;;;;;;;;;;;;;;;4994376;28;19910;-27
2022/01/17 14:49:37;;;;;;;;;;;;;;;;;;4994190;28;20013;-27
2022/01/17 14:52:04;;;;;;;;;;;;;;;;;;4994451;28;19940;-27
2022/01/17 14:54:37;;;;;;;;;;;;;;;;;;4994858;28;19914;-27
2022/01/17 15:00:07;;;;;;;;;;;;;;;;;;4994587;28;20301;-27
2022/01/17 15:02:39;;;;;;;;;;;;;;;;;;4994407;28;19941;-27
2022/01/17 15:05:05;;;;;;;;;;;;;;;;;;4993482;28;19914;-27
2022/01/17 15:07:31;;;;;;;;;;;;;;;;;;4994221;28;19914;-27
2022/01/17 15:09:57;;;;;;;;;;;;;;;;;;4994130;28;19914;-27
2022/01/17 15:12:23;;;;;;;;;;;;;;;;;;4994240;28;19914;-27
2022/01/17 15:14:50;;;;;;;;;;;;;;;;;;4994165;28;19913;-27
2022/01/17 15:17:16;;;;;;;;;;;;;;;;;;4994400;28;19968;-28
2022/01/17 15:19:42;;;;;;;;;;;;;;;;;;4994461;28;20214;-32
2022/01/17 15:22:08;;;;;;;;;;;;;;;;;;4994352;28;19964;-27
2022/01/17 15:24:34;;;;;;;;;;;;;;;;;;4994408;28;20012;-27
2022/01/17 15:27:00;;;;;;;;;;;;;;;;;;4994310;28;19976;-28
2022/01/17 15:29:32;;;;;;;;;;;;;;;;;;4994362;28;19973;-28
2022/01/17 15:31:58;;;;;;;;;;;;;;;;;;4997642;28;19929;-27
2022/01/17 15:34:24;;;;;;;;;;;;;;;;;;4997698;28;19914;-27
2022/01/17 15:36:50;;;;;;;;;;;;;;;;;;4997711;28;19910;-27
2022/01/17 15:39:17;;;;;;;;;;;;;;;;;;4998017;28;20404;-27
2022/01/17 15:41:44;;;;;;;;;;;;;;;;;;4996842;28;19914;-27
2022/01/17 15:44:10;;;;;;;;;;;;;;;;;;4998240;28;19914;-26
2022/01/17 15:46:36;;;;;;;;;;;;;;;;;;4997953;28;19910;-26
2022/01/17 15:49:02;;;;;;;;;;;;;;;;;;4997694;28;19983;-26
2022/01/17 15:51:28;;;;;;;;;;;;;;;;;;4997827;28;20222;-26
2022/01/17 15:53:54;;;;;;;;;;;;;;;;;;4996531;28;20004;-26
2022/01/17 15:56:20;;;;;;;;;;;;;;;;;;4996502;28;19953;-26
2022/01/17 15:58:46;;;;;;;;;;;;;;;;;;4996901;28;19922;-26
2022/01/17 16:01:12;;;;;;;;;;;;;;;;;;4996897;28;19969;-26
2022/01/17 16:03:38;;;;;;;;;;;;;;;;;;4995877;28;19921;-26
2022/01/17 16:06:07;;;;;;;;;;;;;;;;;;4996945;28;19952;-27
2022/01/17 16:08:33;;;;;;;;;;;;;;;;;;4996997;28;19921;-25
2022/01/17 16:10:59;;;;;;;;;;;;;;;;;;4996979;28;20004;-27
2022/01/17 16:13:25;;;;;;;;;;;;;;;;;;4995692;28;19918;-27
2022/01/17 16:15:51;;;;;;;;;;;;;;;;;;4996990;28;20442;-26
2022/01/17 16:18:17;;;;;;;;;;;;;;;;;;4995632;28;19914;-26
2022/01/17 16:20:43;;;;;;;;;;;;;;;;;;4996755;28;19945;-26
2022/01/17 16:23:09;;;;;;;;;;;;;;;;;;4995676;28;19980;-26
2022/01/17 16:25:35;;;;;;;;;;;;;;;;;;4995818;28;19914;-26
2022/01/17 16:28:01;;;;;;;;;;;;;;;;;;4996793;28;19914;-26
2022/01/17 16:30:28;;;;;;;;;;;;;;;;;;4997038;28;19914;-26
2022/01/17 16:32:54;;;;;;;;;;;;;;;;;;4996642;28;19925;-26
2022/01/17 16:35:20;;;;;;;;;;;;;;;;;;4997191;28;19925;-26
2022/01/17 16:37:46;;;;;;;;;;;;;;;;;;4996710;28;19916;-26
2022/01/17 16:40:12;;;;;;;;;;;;;;;;;;4996595;28;20431;-27
2022/01/17 16:42:38;;;;;;;;;;;;;;;;;;4995643;28;19910;-27
2022/01/17 16:45:04;;;;;;;;;;;;;;;;;;4996864;28;19917;-27
2022/01/17 16:47:29;;;;;;;;;;;;;;;;;;4996851;28;19914;-27
2022/01/17 16:49:55;;;;;;;;;;;;;;;;;;4997211;28;19925;-27
2022/01/17 16:52:22;;;;;;;;;;;;;;;;;;4995531;28;19928;-27
2022/01/17 16:54:49;;;;;;;;;;;;;;;;;;4996995;28;19914;-27
2022/01/17 16:57:15;;;;;;;;;;;;;;;;;;4996349;28;19910;-27
2022/01/17 16:59:41;;;;;;;;;;;;;;;;;;4996880;28;19929;-27
2022/01/17 17:02:07;;;;;;;;;;;;;;;;;;4996518;28;19966;-27
2022/01/17 17:04:34;;;;;;;;;;;;;;;;;;4996497;28;19946;-27
2022/01/17 17:07:00;;;;;;;;;;;;;;;;;;4996318;28;19913;-27
2022/01/17 17:09:26;;;;;;;;;;;;;;;;;;4996409;28;19963;-27
2022/01/17 17:11:52;;;;;;;;;;;;;;;;;;4996546;28;19926;-27
2022/01/17 17:14:18;;;;;;;;;;;;;;;;;;4996257;28;19989;-27
2022/01/17 17:16:44;;;;;;;;;;;;;;;;;;4996401;28;19914;-27
2022/01/17 17:19:10;;;;;;;;;;;;;;;;;;4996703;28;19925;-27
2022/01/17 17:21:36;;;;;;;;;;;;;;;;;;4996292;28;19910;-27
2022/01/17 17:24:08;;;;;;;;;;;;;;;;;;4994956;28;19914;-27
2022/01/17 17:26:34;;;;;;;;;;;;;;;;;;4995373;28;19972;-27
2022/01/17 17:29:00;;;;;;;;;;;;;;;;;;4995158;28;19914;-27
2022/01/17 17:31:26;;;;;;;;;;;;;;;;;;4996762;28;19968;-27